Time;durP1;ratioP1;P1;durP2;ratioP2;P2;SDS_P1;SDS_P2;PMS_P1;PMS_P2;Temp;Humidity;BMP_temperature;BMP_pressure;BME280_temperature;BME280_humidity;BME280_pressure;Samples;Min_cycle;Max_cycle;Signal;HPM_P1;HPM_P2
2023/11/14 00:02:24;;;;;;;16.00;5.10;;;9.30;99.90;;;;;;5053072;28;20923;-65
2023/11/14 00:04:50;;;;;;;13.17;3.73;;;9.40;99.90;;;;;;5053578;28;20559;-65
2023/11/14 00:07:15;;;;;;;14.47;4.57;;;9.40;99.90;;;;;;5054510;28;20782;-64
2023/11/14 00:09:41;;;;;;;15.37;6.10;;;9.40;99.90;;;;;;5050737;28;20431;-64
2023/11/14 00:12:07;;;;;;;9.63;3.97;;;9.50;99.90;;;;;;5053312;28;20699;-66
2023/11/14 00:14:33;;;;;;;5.20;2.90;;;9.50;99.90;;;;;;5051514;28;20178;-64
2023/11/14 00:16:58;;;;;;;8.27;3.23;;;9.50;99.90;;;;;;5052439;28;20432;-65
2023/11/14 00:19:24;;;;;;;13.70;3.97;;;9.50;99.90;;;;;;5052631;28;20213;-64
2023/11/14 00:21:50;;;;;;;7.50;2.97;;;9.60;99.90;;;;;;5047742;28;20462;-65
2023/11/14 00:24:16;;;;;;;11.80;3.77;;;9.60;99.90;;;;;;5050206;28;20247;-65
2023/11/14 00:26:42;;;;;;;14.23;3.47;;;9.70;99.90;;;;;;5050948;28;20420;-64
2023/11/14 00:29:08;;;;;;;8.57;3.90;;;9.70;99.90;;;;;;5044176;28;20472;-64
2023/11/14 00:31:33;;;;;;;13.47;5.00;;;9.70;99.90;;;;;;5049500;28;20946;-64
2023/11/14 00:33:59;;;;;;;16.40;3.27;;;9.70;99.90;;;;;;5052293;28;20170;-64
2023/11/14 00:36:25;;;;;;;11.03;3.57;;;9.60;99.90;;;;;;5051478;28;20808;-65
2023/11/14 00:38:50;;;;;;;7.70;3.53;;;9.60;99.90;;;;;;5052380;28;20205;-64
2023/11/14 00:41:17;;;;;;;11.07;4.30;;;9.60;99.90;;;;;;5050749;28;20181;-64
2023/11/14 00:43:43;;;;;;;6.77;3.80;;;9.50;99.90;;;;;;5048234;28;20174;-66
2023/11/14 00:46:12;;;;;;;9.57;4.00;;;9.50;99.90;;;;;;5045791;28;20417;-66
2023/11/14 00:48:38;;;;;;;8.37;3.00;;;9.40;99.90;;;;;;5045478;28;20438;-65
2023/11/14 00:51:04;;;;;;;8.10;3.40;;;9.40;99.90;;;;;;5051871;28;20478;-65
2023/11/14 00:53:30;;;;;;;6.10;3.30;;;9.30;99.90;;;;;;5052735;28;21012;-65
2023/11/14 00:55:55;;;;;;;17.53;3.23;;;9.40;99.90;;;;;;5046299;28;20190;-65
2023/11/14 00:58:24;;;;;;;12.07;2.97;;;9.30;99.90;;;;;;5039944;28;20562;-65
2023/11/14 01:00:50;;;;;;;9.43;3.53;;;9.20;99.90;;;;;;5047341;28;20223;-65
2023/11/14 01:03:15;;;;;;;8.00;2.70;;;9.10;99.90;;;;;;5048448;28;20413;-65
2023/11/14 01:05:41;;;;;;;6.43;2.50;;;9.10;99.90;;;;;;5049773;28;20185;-65
2023/11/14 01:08:07;;;;;;;11.83;2.97;;;9.00;99.90;;;;;;5056273;28;20176;-65
2023/11/14 01:10:32;;;;;;;9.27;3.80;;;9.00;99.90;;;;;;5053432;28;20531;-65
2023/11/14 01:13:00;;;;;;;8.23;2.53;;;9.00;99.90;;;;;;5041162;28;20701;-64
2023/11/14 01:15:26;;;;;;;14.67;4.30;;;9.00;99.90;;;;;;5047954;28;20182;-65
2023/11/14 01:17:52;;;;;;;9.90;3.90;;;9.00;99.90;;;;;;5049058;28;20417;-64
2023/11/14 01:20:18;;;;;;;13.20;3.50;;;8.90;99.90;;;;;;5051497;28;20490;-65
2023/11/14 01:22:43;;;;;;;9.00;3.43;;;8.90;99.90;;;;;;5051530;28;20598;-65
2023/11/14 01:25:09;;;;;;;9.93;4.33;;;8.90;99.90;;;;;;5051529;28;20208;-65
2023/11/14 01:27:36;;;;;;;18.03;3.00;;;8.90;99.90;;;;;;5046867;28;20494;-65
2023/11/14 01:30:02;;;;;;;7.57;3.17;;;8.80;99.90;;;;;;5049516;28;20258;-64
2023/11/14 01:32:28;;;;;;;7.23;3.30;;;8.80;99.90;;;;;;5049590;28;21160;-64
2023/11/14 01:34:53;;;;;;;8.97;3.30;;;8.80;99.90;;;;;;5040068;28;20431;-64
2023/11/14 01:37:19;;;;;;;9.13;3.30;;;8.80;99.90;;;;;;5046809;28;21031;-64
2023/11/14 01:39:45;;;;;;;7.13;3.07;;;8.80;99.90;;;;;;5050338;28;20239;-64
2023/11/14 01:42:11;;;;;;;12.53;3.30;;;8.80;99.90;;;;;;5043515;28;20175;-65
2023/11/14 01:44:36;;;;;;;18.43;3.43;;;8.80;99.90;;;;;;5041215;28;20809;-65
2023/11/14 01:47:02;;;;;;;7.00;2.70;;;8.80;99.90;;;;;;5048451;28;20469;-65
2023/11/14 01:49:29;;;;;;;10.43;3.60;;;8.80;99.90;;;;;;5048628;28;20195;-64
2023/11/14 01:51:55;;;;;;;13.43;4.27;;;8.80;99.90;;;;;;5049260;28;20495;-64
2023/11/14 01:54:22;;;;;;;11.90;3.13;;;8.80;99.90;;;;;;5050049;28;20422;-64
2023/11/14 01:56:49;;;;;;;5.27;3.30;;;8.80;99.90;;;;;;5053372;28;20548;-64
2023/11/14 01:59:15;;;;;;;6.23;3.40;;;8.70;99.90;;;;;;5049810;28;20531;-65
2023/11/14 02:01:42;;;;;;;9.83;3.27;;;8.70;99.90;;;;;;5035862;28;20437;-64
2023/11/14 02:04:13;;;;;;;9.63;4.47;;;8.70;99.90;;;;;;5037636;28;20418;-64
2023/11/14 02:06:39;;;;;;;11.00;3.77;;;8.80;99.90;;;;;;5046576;28;20513;-64
2023/11/14 02:09:07;;;;;;;16.00;3.87;;;8.70;99.90;;;;;;5050406;28;20416;-64
2023/11/14 02:11:36;;;;;;;11.13;3.50;;;8.70;99.90;;;;;;5049911;28;20420;-64
2023/11/14 02:14:02;;;;;;;12.33;4.10;;;8.70;99.90;;;;;;5049496;28;20932;-64
2023/11/14 02:16:46;;;;;;;12.90;3.50;;;8.60;99.90;;;;;;5043770;28;20421;-64
2023/11/14 02:19:12;;;;;;;15.93;4.70;;;8.80;99.90;;;;;;5045034;28;20543;-65
2023/11/14 02:21:38;;;;;;;12.53;4.50;;;8.70;99.90;;;;;;5048118;28;20411;-65
2023/11/14 02:24:08;;;;;;;10.63;3.70;;;8.70;99.90;;;;;;5049618;28;20419;-64
2023/11/14 02:26:33;;;;;;;9.10;5.07;;;8.80;99.90;;;;;;5050435;28;20409;-64
2023/11/14 02:29:00;;;;;;;8.30;3.87;;;8.70;99.90;;;;;;5050508;28;20987;-65
2023/11/14 02:31:27;;;;;;;11.73;4.40;;;8.70;99.90;;;;;;5050613;28;20588;-66
2023/11/14 02:33:53;;;;;;;9.23;3.83;;;8.70;99.90;;;;;;5051788;28;20450;-65
2023/11/14 02:36:18;;;;;;;13.90;4.47;;;8.80;99.90;;;;;;5053681;28;20419;-66
2023/11/14 02:38:44;;;;;;;9.50;4.40;;;8.70;99.90;;;;;;5039605;28;20234;-65
2023/11/14 02:41:10;;;;;;;9.40;3.77;;;8.70;99.90;;;;;;5046942;28;20200;-64
2023/11/14 02:43:36;;;;;;;11.60;4.90;;;8.70;99.90;;;;;;5050649;28;20632;-65
2023/11/14 02:46:01;;;;;;;13.17;3.70;;;8.70;99.90;;;;;;5037976;28;20995;-65
2023/11/14 02:48:27;;;;;;;10.97;3.50;;;8.70;99.90;;;;;;5051702;28;20530;-65
2023/11/14 02:50:56;;;;;;;10.37;3.70;;;8.70;99.90;;;;;;5051599;28;20204;-65
2023/11/14 02:53:23;;;;;;;9.43;3.93;;;8.70;99.90;;;;;;5044366;28;20260;-65
2023/11/14 02:55:52;;;;;;;24.93;5.23;;;8.60;99.90;;;;;;5047821;28;20958;-64
2023/11/14 02:58:19;;;;;;;17.63;3.87;;;8.60;99.90;;;;;;5050817;28;20477;-65
2023/11/14 03:00:48;;;;;;;10.43;3.33;;;8.70;99.90;;;;;;5054025;28;20472;-65
2023/11/14 03:03:14;;;;;;;15.63;5.50;;;8.70;99.90;;;;;;5054948;28;20926;-65
2023/11/14 03:05:40;;;;;;;20.40;3.80;;;8.70;99.90;;;;;;5055804;28;20410;-65
2023/11/14 03:08:05;;;;;;;9.83;3.57;;;8.80;99.90;;;;;;5049475;28;20927;-65
2023/11/14 03:10:31;;;;;;;22.07;6.10;;;8.90;99.90;;;;;;5042105;28;20205;-65
2023/11/14 03:12:58;;;;;;;11.87;4.30;;;8.90;99.90;;;;;;5053857;28;20181;-65
2023/11/14 03:15:23;;;;;;;14.20;4.60;;;9.00;99.90;;;;;;5054124;28;20425;-65
2023/11/14 03:17:49;;;;;;;7.07;3.03;;;9.00;99.90;;;;;;5053607;28;20431;-65
2023/11/14 03:20:15;;;;;;;10.27;4.13;;;9.10;99.90;;;;;;5052243;28;20212;-65
2023/11/14 03:22:41;;;;;;;8.60;3.97;;;9.10;99.90;;;;;;5053150;28;20552;-64
2023/11/14 03:25:07;;;;;;;5.10;3.23;;;9.20;99.90;;;;;;5048556;28;20794;-64
2023/11/14 03:27:32;;;;;;;8.80;3.80;;;9.20;99.90;;;;;;5052492;28;20743;-64
2023/11/14 03:29:59;;;;;;;8.80;3.03;;;9.30;99.90;;;;;;5053386;28;20902;-64
2023/11/14 03:32:24;;;;;;;10.57;3.60;;;9.30;99.90;;;;;;5053652;28;20273;-64
2023/11/14 03:34:50;;;;;;;9.70;4.30;;;9.30;99.90;;;;;;5050505;28;20458;-64
2023/11/14 03:37:16;;;;;;;7.67;3.37;;;9.40;99.90;;;;;;5046898;28;20589;-64
2023/11/14 03:39:42;;;;;;;8.20;3.67;;;9.40;99.90;;;;;;5050528;28;20620;-64
2023/11/14 03:42:07;;;;;;;13.67;4.03;;;9.30;99.90;;;;;;5044956;28;20296;-64
2023/11/14 03:44:33;;;;;;;7.33;3.83;;;9.30;99.90;;;;;;5048200;28;20910;-64
2023/11/14 03:46:59;;;;;;;8.80;3.70;;;9.30;99.90;;;;;;5044495;28;20194;-64
2023/11/14 03:49:24;;;;;;;11.47;6.00;;;9.30;99.90;;;;;;5054118;28;20581;-64
2023/11/14 03:51:50;;;;;;;12.50;4.03;;;9.40;99.90;;;;;;5047817;28;20345;-64
2023/11/14 03:54:15;;;;;;;10.50;3.33;;;9.40;99.90;;;;;;5054196;28;20593;-64
2023/11/14 03:56:41;;;;;;;12.17;3.40;;;9.40;99.90;;;;;;5049539;28;20194;-64
2023/11/14 03:59:06;;;;;;;13.10;3.40;;;9.40;99.90;;;;;;5053571;28;20296;-66
2023/11/14 04:01:32;;;;;;;11.73;4.20;;;9.50;99.90;;;;;;5053466;28;20207;-64
2023/11/14 04:03:58;;;;;;;18.70;3.30;;;9.50;99.90;;;;;;5053411;28;20210;-64
2023/11/14 04:06:23;;;;;;;12.73;5.03;;;9.50;99.90;;;;;;5058593;28;20191;-63
2023/11/14 04:08:49;;;;;;;7.97;3.93;;;9.50;99.90;;;;;;5044083;28;20196;-63
2023/11/14 04:11:14;;;;;;;9.73;3.30;;;9.40;99.90;;;;;;5044062;28;20182;-63
2023/11/14 04:13:40;;;;;;;11.13;2.97;;;9.40;99.90;;;;;;5053548;28;20185;-64
2023/11/14 04:16:06;;;;;;;9.67;3.10;;;9.40;99.90;;;;;;5052216;28;20239;-64
2023/11/14 04:18:32;;;;;;;16.77;3.30;;;9.50;99.90;;;;;;5053147;28;20336;-66
2023/11/14 04:20:58;;;;;;;11.30;3.83;;;9.50;99.90;;;;;;5053343;28;20438;-66
2023/11/14 04:23:24;;;;;;;8.13;3.47;;;9.50;99.90;;;;;;5050652;28;20657;-65
2023/11/14 04:25:50;;;;;;;10.37;3.27;;;9.50;99.90;;;;;;5048832;28;20425;-66
2023/11/14 04:28:15;;;;;;;9.40;2.90;;;9.50;99.90;;;;;;5051602;28;20444;-66
2023/11/14 04:30:41;;;;;;;10.70;3.37;;;9.50;99.90;;;;;;5050624;28;20316;-64
2023/11/14 04:33:06;;;;;;;15.00;2.53;;;9.50;99.90;;;;;;5051642;28;21091;-64
2023/11/14 04:35:32;;;;;;;11.03;3.43;;;9.50;99.90;;;;;;5053342;28;20186;-65
2023/11/14 04:37:57;;;;;;;5.70;3.00;;;9.60;99.90;;;;;;5047281;28;20650;-65
2023/11/14 04:40:23;;;;;;;13.03;3.53;;;9.70;99.90;;;;;;5046199;28;20220;-64
2023/11/14 04:42:51;;;;;;;11.20;3.10;;;9.70;99.90;;;;;;5042177;28;20264;-65
2023/11/14 04:45:17;;;;;;;10.53;3.47;;;9.70;99.90;;;;;;5044103;28;20428;-64
2023/11/14 04:47:42;;;;;;;8.30;2.90;;;9.70;99.90;;;;;;5051908;28;20434;-63
2023/11/14 04:50:08;;;;;;;8.53;2.53;;;9.80;99.90;;;;;;5053623;28;20575;-64
2023/11/14 04:52:34;;;;;;;6.93;2.80;;;9.70;99.90;;;;;;5051256;28;20184;-64
2023/11/14 04:55:00;;;;;;;8.90;3.20;;;9.70;99.90;;;;;;5047693;28;20254;-66
2023/11/14 04:57:26;;;;;;;5.73;2.23;;;9.80;99.90;;;;;;5043456;28;20274;-64
2023/11/14 04:59:52;;;;;;;7.63;2.53;;;9.80;99.90;;;;;;5050325;28;20968;-64
2023/11/14 05:02:18;;;;;;;6.80;2.90;;;9.80;99.90;;;;;;5049396;28;20767;-64
2023/11/14 05:04:43;;;;;;;7.37;2.77;;;9.80;99.90;;;;;;5051156;28;20942;-65
2023/11/14 05:07:10;;;;;;;5.90;2.33;;;9.80;99.90;;;;;;5051826;28;20531;-63
2023/11/14 05:09:36;;;;;;;8.30;2.63;;;9.90;99.90;;;;;;5048765;28;20210;-64
2023/11/14 05:12:01;;;;;;;13.77;3.73;;;10.00;99.90;;;;;;5047942;28;20868;-65
2023/11/14 05:14:27;;;;;;;11.83;2.40;;;10.00;99.90;;;;;;5050004;28;20177;-64
2023/11/14 05:16:56;;;;;;;10.07;1.97;;;10.10;99.90;;;;;;5048315;28;20175;-65
2023/11/14 05:19:25;;;;;;;8.60;2.60;;;10.10;99.90;;;;;;5045852;28;20217;-65
2023/11/14 05:21:51;;;;;;;7.10;1.87;;;10.10;99.90;;;;;;5054176;28;20424;-65
2023/11/14 05:24:17;;;;;;;9.30;2.63;;;10.10;99.90;;;;;;5050883;28;20498;-65
2023/11/14 05:26:43;;;;;;;6.13;2.43;;;10.10;99.90;;;;;;5049548;28;20175;-65
2023/11/14 05:29:09;;;;;;;10.10;2.43;;;10.20;99.90;;;;;;5046572;28;20209;-65
2023/11/14 05:31:35;;;;;;;5.90;2.93;;;10.20;99.90;;;;;;5037642;28;20806;-65
2023/11/14 05:34:01;;;;;;;5.00;2.00;;;10.30;99.90;;;;;;5050180;28;20780;-64
2023/11/14 05:36:27;;;;;;;8.43;4.00;;;10.30;99.90;;;;;;5043259;28;20448;-65
2023/11/14 05:38:53;;;;;;;8.30;2.63;;;10.30;99.90;;;;;;5047122;28;20210;-66
2023/11/14 05:41:18;;;;;;;9.40;3.27;;;10.30;99.90;;;;;;5053005;28;20737;-64
2023/11/14 05:43:44;;;;;;;9.30;3.03;;;10.40;99.90;;;;;;5048689;28;20465;-64
2023/11/14 05:46:10;;;;;;;5.87;2.20;;;10.40;99.90;;;;;;5048597;28;20166;-65
2023/11/14 05:48:36;;;;;;;9.80;2.80;;;10.30;99.90;;;;;;5049244;28;20273;-64
2023/11/14 05:51:03;;;;;;;7.40;2.70;;;10.40;99.90;;;;;;5048571;28;20443;-65
2023/11/14 05:53:29;;;;;;;6.60;2.47;;;10.40;99.90;;;;;;5047793;28;20500;-64
2023/11/14 05:55:56;;;;;;;9.17;2.63;;;10.40;99.90;;;;;;5049352;28;20439;-63
2023/11/14 05:58:22;;;;;;;11.50;2.83;;;10.40;99.90;;;;;;5046550;28;20938;-64
2023/11/14 06:00:49;;;;;;;7.17;2.23;;;10.40;99.90;;;;;;5045339;28;20654;-65
2023/11/14 06:03:20;;;;;;;12.50;2.73;;;10.50;99.90;;;;;;5048881;28;20408;-64
2023/11/14 06:05:45;;;;;;;6.53;2.23;;;10.50;99.90;;;;;;5049679;28;20408;-65
2023/11/14 06:08:11;;;;;;;7.50;3.97;;;10.50;99.90;;;;;;5050316;28;20862;-65
2023/11/14 06:10:36;;;;;;;10.13;3.23;;;10.50;99.90;;;;;;5047609;28;20294;-64
2023/11/14 06:13:02;;;;;;;7.73;2.57;;;10.50;99.90;;;;;;5046979;28;20535;-65
2023/11/14 06:15:29;;;;;;;7.63;2.60;;;10.50;99.90;;;;;;5049369;28;20173;-64
2023/11/14 06:17:54;;;;;;;3.20;2.30;;;10.50;99.90;;;;;;5048948;28;20208;-66
2023/11/14 06:20:22;;;;;;;17.23;2.53;;;10.50;99.90;;;;;;5045043;28;21049;-64
2023/11/14 06:22:49;;;;;;;4.80;2.67;;;10.50;99.90;;;;;;5048558;28;20297;-65
2023/11/14 06:25:15;;;;;;;9.40;2.63;;;10.50;99.90;;;;;;5046792;28;20810;-64
2023/11/14 06:27:41;;;;;;;5.47;2.73;;;10.50;99.90;;;;;;5048915;28;20952;-64
2023/11/14 06:30:07;;;;;;;9.73;2.67;;;10.50;99.90;;;;;;5047050;28;20210;-65
2023/11/14 06:32:33;;;;;;;12.50;3.20;;;10.50;99.90;;;;;;5042474;28;20443;-64
2023/11/14 06:34:59;;;;;;;6.13;2.30;;;10.50;99.90;;;;;;5040473;28;20428;-64
2023/11/14 06:37:25;;;;;;;6.57;3.00;;;10.50;99.90;;;;;;5040678;28;20864;-64
2023/11/14 06:39:51;;;;;;;5.50;3.17;;;10.50;99.90;;;;;;5047488;28;20209;-66
2023/11/14 06:42:16;;;;;;;12.83;3.43;;;10.50;99.90;;;;;;5051212;28;20174;-64
2023/11/14 06:44:43;;;;;;;11.37;7.77;;;10.50;99.90;;;;;;5050961;28;20414;-68
2023/11/14 06:47:10;;;;;;;8.50;2.47;;;10.60;99.90;;;;;;5048406;28;20828;-66
2023/11/14 06:49:35;;;;;;;13.37;5.43;;;10.60;99.90;;;;;;5048815;28;20927;-64
2023/11/14 06:52:01;;;;;;;10.87;2.83;;;10.70;99.90;;;;;;5051236;28;20916;-64
2023/11/14 06:54:26;;;;;;;5.30;2.20;;;10.60;99.90;;;;;;5043858;28;20602;-64
2023/11/14 06:56:52;;;;;;;13.17;3.67;;;10.70;99.90;;;;;;5047062;28;20529;-66
2023/11/14 06:59:18;;;;;;;15.33;3.23;;;10.70;99.90;;;;;;5045348;28;20202;-69
2023/11/14 07:01:49;;;;;;;6.70;3.20;;;10.70;99.90;;;;;;5043426;28;20175;-65
2023/11/14 07:04:14;;;;;;;15.00;2.73;;;10.70;99.90;;;;;;5053196;28;20178;-65
2023/11/14 07:06:44;;;;;;;6.90;2.63;;;10.70;99.90;;;;;;5050046;28;20587;-63
2023/11/14 07:09:15;;;;;;;11.13;2.80;;;10.80;99.90;;;;;;5041112;28;20718;-65
2023/11/14 07:11:44;;;;;;;9.13;2.70;;;10.80;99.90;;;;;;5040518;28;20520;-65
2023/11/14 07:14:10;;;;;;;16.67;2.73;;;10.80;99.90;;;;;;5047060;28;20523;-64
2023/11/14 07:16:35;;;;;;;8.90;2.50;;;10.80;99.90;;;;;;5040806;28;21004;-64
2023/11/14 07:19:04;;;;;;;11.83;3.10;;;10.80;99.90;;;;;;5042283;28;20928;-65
2023/11/14 07:21:32;;;;;;;10.10;2.50;;;10.90;99.90;;;;;;5039639;28;20315;-67
2023/11/14 07:23:59;;;;;;;6.63;2.57;;;10.90;99.90;;;;;;5048245;28;20458;-70
2023/11/14 07:26:24;;;;;;;14.00;3.60;;;10.90;99.90;;;;;;5050204;28;20413;-66
2023/11/14 07:28:50;;;;;;;9.53;3.00;;;10.90;99.90;;;;;;5042430;28;20832;-69
2023/11/14 07:31:19;;;;;;;11.10;3.10;;;10.90;99.90;;;;;;5043559;28;20591;-64
2023/11/14 07:33:45;;;;;;;8.83;2.80;;;11.00;99.90;;;;;;5041600;28;20412;-64
2023/11/14 07:36:11;;;;;;;15.80;6.20;;;11.10;99.90;;;;;;5048258;28;20474;-67
2023/11/14 07:38:36;;;;;;;12.00;3.80;;;11.20;99.90;;;;;;5048849;28;20550;-70
2023/11/14 07:41:02;;;;;;;10.57;2.97;;;11.20;99.90;;;;;;5051332;28;20197;-66
2023/11/14 07:43:29;;;;;;;7.33;3.00;;;11.20;99.90;;;;;;5043716;28;20182;-64
2023/11/14 07:45:54;;;;;;;5.87;2.47;;;11.40;99.90;;;;;;5055231;28;20182;-65
2023/11/14 07:48:20;;;;;;;7.13;2.90;;;11.40;99.90;;;;;;5048689;28;20431;-65
2023/11/14 07:50:46;;;;;;;7.23;3.57;;;11.40;99.90;;;;;;5046348;28;20247;-66
2023/11/14 07:53:12;;;;;;;12.13;2.70;;;11.50;99.90;;;;;;5055319;28;20623;-67
2023/11/14 07:55:38;;;;;;;10.00;2.70;;;11.50;99.90;;;;;;5057563;28;20487;-64
2023/11/14 07:58:04;;;;;;;9.97;2.90;;;11.50;99.90;;;;;;5057403;28;20184;-66
2023/11/14 08:00:31;;;;;;;11.50;3.17;;;11.50;99.90;;;;;;5063594;28;20677;-65
2023/11/14 08:02:56;;;;;;;8.80;2.40;;;11.50;99.90;;;;;;5057984;28;20174;-71
2023/11/14 08:05:22;;;;;;;6.30;2.30;;;11.60;99.90;;;;;;5056590;28;20862;-68
2023/11/14 08:07:48;;;;;;;6.17;2.70;;;11.60;99.90;;;;;;5055388;28;20645;-73
2023/11/14 08:10:13;;;;;;;8.73;2.30;;;11.60;99.90;;;;;;5055699;28;20565;-64
2023/11/14 08:12:39;;;;;;;7.70;2.80;;;11.60;99.90;;;;;;5057083;28;20706;-65
2023/11/14 08:15:06;;;;;;;9.20;3.50;;;11.70;99.90;;;;;;5055543;28;20175;-66
2023/11/14 08:17:32;;;;;;;10.53;3.00;;;11.80;99.90;;;;;;5055711;28;20189;-66
2023/11/14 08:19:58;;;;;;;11.10;2.30;;;11.80;99.90;;;;;;5049230;28;20690;-66
2023/11/14 08:22:23;;;;;;;5.37;3.20;;;11.80;99.90;;;;;;5054899;28;20998;-67
2023/11/14 08:24:49;;;;;;;7.83;4.13;;;11.80;99.90;;;;;;5051303;28;20504;-65
2023/11/14 08:27:15;;;;;;;9.70;2.30;;;11.90;99.90;;;;;;5051219;28;20759;-64
2023/11/14 08:29:41;;;;;;;4.97;1.70;;;11.90;99.90;;;;;;5042518;28;20209;-65
2023/11/14 08:32:08;;;;;;;10.73;2.77;;;11.90;99.90;;;;;;5033248;28;20460;-66
2023/11/14 08:34:34;;;;;;;8.70;2.40;;;11.80;99.90;;;;;;5062525;28;20455;-65
2023/11/14 08:37:00;;;;;;;11.97;3.23;;;11.90;99.90;;;;;;5053590;28;20429;-65
2023/11/14 08:39:26;;;;;;;5.63;2.13;;;11.90;99.90;;;;;;5055558;28;20642;-65
2023/11/14 08:41:51;;;;;;;6.93;2.13;;;11.90;99.90;;;;;;5052429;28;20179;-66
2023/11/14 08:44:17;;;;;;;11.63;3.37;;;12.00;99.90;;;;;;5054898;28;20507;-65
2023/11/14 08:46:43;;;;;;;9.77;1.87;;;12.00;99.90;;;;;;5048845;28;20177;-65
2023/11/14 08:49:08;;;;;;;6.13;2.17;;;12.00;99.90;;;;;;5055124;28;20651;-64
2023/11/14 08:51:35;;;;;;;10.60;3.07;;;12.00;99.90;;;;;;5054767;28;20227;-65
2023/11/14 08:54:00;;;;;;;4.60;1.83;;;12.00;99.90;;;;;;5054783;28;20712;-66
2023/11/14 08:56:29;;;;;;;10.60;2.83;;;12.10;99.90;;;;;;5053867;28;20539;-66
2023/11/14 08:58:57;;;;;;;17.40;3.20;;;12.10;99.90;;;;;;5058089;28;20207;-64
2023/11/14 09:01:26;;;;;;;6.97;2.60;;;12.10;99.90;;;;;;5054260;28;20467;-65
2023/11/14 09:03:52;;;;;;;10.23;2.63;;;12.20;99.90;;;;;;5054438;28;20432;-64
2023/11/14 09:06:18;;;;;;;6.57;2.10;;;12.30;99.90;;;;;;5063117;28;20504;-66
2023/11/14 09:08:45;;;;;;;11.73;2.40;;;12.40;99.90;;;;;;5054769;28;20734;-66
2023/11/14 09:11:11;;;;;;;9.20;3.13;;;12.30;99.90;;;;;;5054511;28;20907;-65
2023/11/14 09:13:36;;;;;;;7.53;2.90;;;12.40;99.90;;;;;;5054676;28;20508;-65
2023/11/14 09:16:02;;;;;;;13.23;3.00;;;12.40;99.90;;;;;;5050506;28;20624;-65
2023/11/14 09:18:28;;;;;;;8.83;3.40;;;12.40;99.90;;;;;;5062664;28;20917;-65
2023/11/14 09:20:55;;;;;;;9.90;2.83;;;12.40;99.90;;;;;;5054325;28;20206;-65
2023/11/14 09:23:21;;;;;;;8.60;2.80;;;12.40;99.90;;;;;;5046897;28;20179;-65
2023/11/14 09:25:47;;;;;;;4.17;2.13;;;12.40;99.90;;;;;;5054251;28;20427;-65
2023/11/14 09:28:13;;;;;;;7.67;2.50;;;12.50;99.90;;;;;;5056352;28;20417;-65
2023/11/14 09:30:39;;;;;;;8.57;2.43;;;12.60;99.90;;;;;;5048590;28;20202;-65
2023/11/14 09:33:05;;;;;;;9.77;2.23;;;12.60;99.90;;;;;;5047339;28;21237;-66
2023/11/14 09:35:31;;;;;;;7.27;2.50;;;12.60;99.90;;;;;;5062935;28;20453;-67
2023/11/14 09:37:56;;;;;;;7.23;2.70;;;12.60;99.90;;;;;;5062530;28;20630;-65
2023/11/14 09:40:22;;;;;;;8.07;2.40;;;12.70;99.90;;;;;;5054784;28;20752;-65
2023/11/14 09:42:51;;;;;;;10.43;3.33;;;12.70;99.90;;;;;;5053822;28;20389;-66
2023/11/14 09:45:24;;;;;;;11.43;3.27;;;12.80;99.90;;;;;;5055702;28;20463;-65
2023/11/14 09:47:49;;;;;;;7.23;2.50;;;12.80;99.90;;;;;;5059453;28;20424;-65
2023/11/14 09:50:16;;;;;;;7.33;2.50;;;12.90;99.90;;;;;;5055051;28;20719;-65
2023/11/14 09:52:42;;;;;;;12.37;2.27;;;13.00;99.90;;;;;;5063341;28;20220;-65
2023/11/14 09:55:11;;;;;;;15.23;4.47;;;13.10;99.90;;;;;;5057670;28;20443;-65
2023/11/14 09:57:37;;;;;;;9.53;2.93;;;13.00;99.90;;;;;;5059894;28;20963;-65
2023/11/14 10:00:06;;;;;;;8.83;2.73;;;13.00;99.90;;;;;;5064860;28;20569;-65
2023/11/14 10:02:32;;;;;;;10.20;2.63;;;13.00;99.90;;;;;;5062776;28;20471;-65
2023/11/14 10:04:57;;;;;;;5.33;1.60;;;13.10;99.90;;;;;;5065525;28;20762;-65
2023/11/14 10:07:25;;;;;;;9.83;3.00;;;12.90;99.90;;;;;;5059752;28;20184;-65
2023/11/14 10:09:51;;;;;;;6.80;3.20;;;12.90;99.90;;;;;;5056706;28;20624;-64
2023/11/14 10:12:37;;;;;;;10.80;3.00;;;12.90;99.90;;;;;;5052362;28;20845;-65
2023/11/14 10:15:03;;;;;;;6.50;1.80;;;12.90;99.90;;;;;;5053693;28;21068;-65
2023/11/14 10:17:43;;;;;;;7.80;2.63;;;12.80;99.90;;;;;;5053584;28;20417;-65
2023/11/14 10:20:10;;;;;;;10.67;2.57;;;12.90;99.90;;;;;;5061778;28;20490;-65
2023/11/14 10:22:51;;;;;;;7.20;3.37;;;12.80;99.90;;;;;;5053433;28;20872;-67
2023/11/14 10:25:33;;;;;;;9.57;4.00;;;12.80;99.90;;;;;;5054047;28;20412;-68
2023/11/14 10:28:02;;;;;;;14.93;3.10;;;12.90;99.90;;;;;;5058760;28;20408;-65
2023/11/14 10:30:43;;;;;;;6.83;2.83;;;12.90;99.90;;;;;;5040181;28;20505;-65
2023/11/14 10:33:09;;;;;;;7.53;2.70;;;13.00;99.90;;;;;;5052638;28;20911;-66
2023/11/14 10:35:36;;;;;;;8.77;3.37;;;13.10;99.90;;;;;;5053170;28;20883;-66
2023/11/14 10:38:16;;;;;;;11.57;3.07;;;13.10;99.90;;;;;;5051955;28;21047;-66
2023/11/14 10:40:50;;;;;;;6.93;2.90;;;13.20;99.90;;;;;;5053843;28;20833;-66
2023/11/14 10:43:31;;;;;;;10.63;3.37;;;13.30;99.90;;;;;;5053618;28;20445;-66
2023/11/14 10:46:07;;;;;;;10.57;3.63;;;13.40;99.90;;;;;;5056158;28;20421;-66
2023/11/14 10:48:33;;;;;;;12.83;3.40;;;13.50;99.90;;;;;;5057939;28;20972;-66
2023/11/14 10:50:59;;;;;;;7.63;2.80;;;13.60;99.90;;;;;;5053078;28;20558;-65
2023/11/14 10:53:26;;;;;;;12.50;3.40;;;13.70;99.90;;;;;;5062142;28;20256;-64
2023/11/14 10:55:52;;;;;;;8.07;3.33;;;13.70;99.90;;;;;;5066827;28;20441;-65
2023/11/14 10:58:18;;;;;;;12.83;4.40;;;13.70;99.90;;;;;;5066128;28;20789;-65
2023/11/14 11:00:51;;;;;;;5.13;2.20;;;13.70;99.90;;;;;;5071184;28;20478;-65
2023/11/14 11:03:20;;;;;;;7.43;2.67;;;13.70;99.90;;;;;;5064104;28;20418;-64
2023/11/14 11:05:49;;;;;;;8.37;2.80;;;13.70;99.90;;;;;;5057934;28;20430;-64
2023/11/14 11:08:20;;;;;;;7.00;2.43;;;13.70;99.90;;;;;;5063997;28;20417;-70
2023/11/14 11:10:48;;;;;;;11.60;4.43;;;13.60;99.90;;;;;;5070759;28;20436;-64
2023/11/14 11:13:20;;;;;;;10.03;2.90;;;13.60;99.90;;;;;;5069859;28;20856;-63
2023/11/14 11:15:50;;;;;;;11.40;2.67;;;13.70;99.90;;;;;;5065088;28;20423;-64
2023/11/14 11:18:38;;;;;;;8.93;2.83;;;13.80;99.90;;;;;;5071123;28;20449;-63
2023/11/14 11:21:11;;;;;;;6.93;2.67;;;13.70;99.90;;;;;;5070414;28;21004;-64
2023/11/14 11:24:14;;;;;;;5.37;2.60;;;13.60;99.90;;;;;;5062344;28;21106;-64
2023/11/14 11:27:29;;;;;;;8.93;2.97;;;13.50;99.90;;;;;;5064099;28;20768;-64
2023/11/14 11:30:01;;;;;;;4.30;2.40;;;13.50;99.90;;;;;;5074426;28;20428;-64
2023/11/14 11:32:40;;;;;;;17.67;3.23;;;13.40;99.90;;;;;;5072556;28;20437;-67
2023/11/14 11:35:22;;;;;;;7.90;2.30;;;13.30;99.90;;;;;;5071490;28;20422;-64
2023/11/14 11:37:54;;;;;;;7.23;1.73;;;13.30;99.90;;;;;;5074138;28;20405;-64
2023/11/14 11:40:31;;;;;;;4.53;2.27;;;13.30;99.90;;;;;;5074056;28;20468;-64
2023/11/14 11:43:10;;;;;;;6.20;2.43;;;13.30;99.90;;;;;;5070878;28;20415;-64
2023/11/14 11:45:41;;;;;;;11.07;2.53;;;13.40;99.90;;;;;;5059432;28;20431;-69
2023/11/14 11:48:32;;;;;;;22.23;4.70;;;13.40;99.90;;;;;;5061217;28;20826;-65
2023/11/14 11:51:20;;;;;;;8.77;2.20;;;13.40;99.90;;;;;;5063075;28;20449;-64
2023/11/14 11:53:49;;;;;;;8.87;2.90;;;13.30;99.90;;;;;;5057924;28;20503;-64
2023/11/14 11:56:39;;;;;;;6.67;2.10;;;13.30;99.90;;;;;;5073681;28;20424;-68
2023/11/14 11:59:10;;;;;;;7.27;3.50;;;13.30;99.90;;;;;;5066265;28;20467;-64
2023/11/14 12:01:54;;;;;;;8.10;2.63;;;13.30;99.90;;;;;;5062551;28;20400;-64
2023/11/14 12:04:21;;;;;;;7.50;2.40;;;13.40;99.90;;;;;;5062906;28;20409;-65
2023/11/14 12:06:47;;;;;;;5.70;1.60;;;13.50;99.90;;;;;;5070278;28;20543;-65
2023/11/14 12:09:21;;;;;;;12.40;3.30;;;13.50;99.90;;;;;;5065473;28;21007;-63
2023/11/14 12:11:48;;;;;;;7.03;2.67;;;13.60;99.90;;;;;;5083846;28;20443;-64
2023/11/14 12:14:18;;;;;;;6.00;2.37;;;13.60;99.90;;;;;;5077006;28;20449;-64
2023/11/14 12:16:47;;;;;;;11.07;2.70;;;13.60;99.90;;;;;;5058336;28;20638;-64
2023/11/14 12:19:16;;;;;;;18.03;4.00;;;13.50;99.90;;;;;;5058090;28;20461;-64
2023/11/14 12:21:45;;;;;;;12.47;3.90;;;13.40;99.90;;;;;;5060863;28;20923;-64
2023/11/14 12:24:12;;;;;;;6.47;3.50;;;13.50;99.90;;;;;;5065423;28;20441;-64
2023/11/14 12:26:38;;;;;;;10.40;4.40;;;13.40;99.90;;;;;;5060544;28;20455;-64
2023/11/14 12:29:10;;;;;;;9.13;3.13;;;13.50;99.90;;;;;;5057423;28;20406;-64
2023/11/14 12:31:36;;;;;;;9.60;3.30;;;13.40;99.90;;;;;;5056387;28;20416;-64
2023/11/14 12:34:04;;;;;;;7.70;3.90;;;13.40;99.90;;;;;;5059883;28;20418;-64
2023/11/14 12:36:30;;;;;;;8.70;3.63;;;13.40;99.90;;;;;;5060474;28;20429;-69
2023/11/14 12:39:11;;;;;;;8.07;3.10;;;13.40;99.90;;;;;;5063385;28;20496;-64
2023/11/14 12:41:42;;;;;;;15.87;5.00;;;13.40;99.90;;;;;;5072772;28;21076;-64
2023/11/14 12:44:07;;;;;;;10.73;4.83;;;13.40;99.90;;;;;;5063240;28;20416;-65
2023/11/14 12:46:35;;;;;;;5.63;2.90;;;13.40;99.90;;;;;;5068402;28;20938;-64
2023/11/14 12:49:10;;;;;;;10.43;3.10;;;13.40;99.90;;;;;;5062372;28;20265;-63